WetterOnline ( https://www.wetteronline.de )

Wetter aktuell Mahlstetten

Aktuelles Wetter: Klippeneck (975m)

6-stündlich | Neueste Meldungen
Ortszeit Temperatur Wetter
Mo, 22.07. 2:00 16.8° C bewölkt
So, 21.07. 20:00 17.8° C Regen
So, 21.07. 14:00 22.4° C bewölkt
So, 21.07. 8:00 18.9° C wolkig
So, 21.07. 2:00 19.2° C wolkenlos
Sa, 20.07. 20:00 23.5° C leicht bewölkt
Sa, 20.07. 14:00 25.2° C wolkenlos
Sa, 20.07. 8:00 20.3° C wolkenlos
Ortszeit Temperatur Wetter
Mo, 22.07. 4:00 16.0° C bewölkt
Mo, 22.07. 3:50 16.0° C bewölkt
Mo, 22.07. 3:40 16.0° C wolkig
Mo, 22.07. 3:30 16.1° C wolkig
Mo, 22.07. 3:20 16.1° C wolkig
Mo, 22.07. 3:10 16.2° C leicht bewölkt
Mo, 22.07. 3:00 16.4° C wolkig
Mo, 22.07. 2:30 16.4° C wolkig
Mo, 22.07. 2:00 16.8° C bewölkt
Mo, 22.07. 1:30 16.9° C bewölkt
Mo, 22.07. 1:00 16.5° C leicht bewölkt
Ortszeit Relative Feuchte Sichtweite
Mo, 22.07. 2:00 86% 55 km
So, 21.07. 20:00 90% 55 km
So, 21.07. 14:00 60% 55 km
So, 21.07. 8:00 81% 40 km
So, 21.07. 2:00 67% 50 km
Sa, 20.07. 20:00 54% 50 km
Sa, 20.07. 14:00 43% 65 km
Sa, 20.07. 8:00 61% 40 km
Ortszeit Relative Feuchte Sichtweite
Mo, 22.07. 4:00 91% 45 km
Mo, 22.07. 3:50 91% -
Mo, 22.07. 3:40 91% -
Mo, 22.07. 3:30 90% 60 km
Mo, 22.07. 3:20 90% -
Mo, 22.07. 3:10 89% -
Mo, 22.07. 3:00 89% 50 km
Mo, 22.07. 2:30 87% 50 km
Mo, 22.07. 2:00 86% 55 km
Mo, 22.07. 1:30 86% 55 km
Mo, 22.07. 1:00 90% 50 km
Ortszeit Niederschlagsmenge Niederschlagsart
Mo, 22.07. 2:00 0.0 l/m2 in 6 Std. -
So, 21.07. 20:00 4 l/m2 in 12 Std. Regen
So, 21.07. 14:00 1 l/m2 in 6 Std. Regen
So, 21.07. 8:00 0.1 l/m2 in 12 Std. Regen
So, 21.07. 2:00 0.0 l/m2 in 6 Std. -
Sa, 20.07. 20:00 0.0 l/m2 in 12 Std. -
Sa, 20.07. 14:00 0.0 l/m2 in 6 Std. -
Sa, 20.07. 8:00 0.0 l/m2 in 12 Std. -
Ortszeit Niederschlagsmenge Niederschlagsart
Mo, 22.07. 4:00 0.0 l/m2 in 1 Std. -
Mo, 22.07. 3:50 keine Meldung -
Mo, 22.07. 3:40 keine Meldung -
Mo, 22.07. 3:30 0.0 l/m2 in 30 Min -
Mo, 22.07. 3:20 keine Meldung -
Mo, 22.07. 3:10 keine Meldung -
Mo, 22.07. 3:00 0.0 l/m2 in 1 Std. -
Mo, 22.07. 2:30 0.0 l/m2 in 30 Min -
Mo, 22.07. 2:00 0.0 l/m2 in 1 Std. -
Mo, 22.07. 1:30 0.0 l/m2 in 30 Min -
Mo, 22.07. 1:00 0.0 l/m2 in 1 Std. -
Ortszeit Stärke Spitze Richtung
km/h Bft. km/h Grad Sektor
Mo, 22.07. 2:00 11 2 29 240° SW
So, 21.07. 20:00 14 3 29 310° NW
So, 21.07. 14:00 7 2 25 230° SW
So, 21.07. 8:00 9 2 24 280° W
So, 21.07. 2:00 19 3 24 130° SO
Sa, 20.07. 20:00 7 2 22 140° SO
Sa, 20.07. 14:00 7 2 18 280° W
Sa, 20.07. 8:00 4 1 7 210° SW
Ortszeit Stärke Spitze Richtung
km/h Bft. km/h Grad Sektor
Mo, 22.07. 4:00 9 2 19 280° W
Mo, 22.07. 3:50 9 2 - 280° W
Mo, 22.07. 3:40 9 2 - 270° W
Mo, 22.07. 3:30 11 2 18 270° W
Mo, 22.07. 3:20 11 2 - 270° W
Mo, 22.07. 3:10 11 2 - 270° W
Mo, 22.07. 3:00 11 2 18 260° W
Mo, 22.07. 2:30 9 2 17 240° SW
Mo, 22.07. 2:00 11 2 18 240° SW
Mo, 22.07. 1:30 11 2 18 240° SW
Mo, 22.07. 1:00 7 2 15 230° SW
Ortszeit Untergrenze Bedeckung Gattung
total tief tief mittel hoch
Mo, 22.07. 2:00 720 m 7/8 7/8 - - -
So, 21.07. 20:00 1500 m 7/8 7/8 - - -
So, 21.07. 14:00 2400 m 7/8 7/8 - - -
So, 21.07. 8:00 2100 m 8/8 3/8 - - -
So, 21.07. 2:00 - 0/8 0/8 - - -
Sa, 20.07. 20:00 3900 m 5/8 1/8 - - -
Sa, 20.07. 14:00 - 0/8 0/8 - - -
Sa, 20.07. 8:00 - 0/8 0/8 - - -
Ortszeit Bedeckungsgrad in Achtel und Wolkenuntergrenze
Mo, 22.07. 4:00 6(240m) 7(9000m)
Mo, 22.07. 3:50 6(240m) 7(9000m)
Mo, 22.07. 3:40 6
Mo, 22.07. 3:30 1(480m) 4(1230m) 6(10500m)
Mo, 22.07. 3:20 1(480m) 4(1230m) 6(10500m)
Mo, 22.07. 3:10 4
Mo, 22.07. 3:00 4(720m) 5(1410m)
Mo, 22.07. 2:30 1(1020m) 5(1500m)
Mo, 22.07. 2:00 4(720m) 7(960m) 7(1230m)
Mo, 22.07. 1:30 5(660m) 6(780m) 7(930m)
Mo, 22.07. 1:00 1(2100m)
Ortszeit Stationsdruck (hPa) Tendenz (hPa in 3 Std.)
Mo, 22.07. 2:00 906 + 1,0
So, 21.07. 20:00 903 + 1,1
So, 21.07. 14:00 902 + 0,3
So, 21.07. 8:00 901 + 0,8
So, 21.07. 2:00 901 - 0,7
Sa, 20.07. 20:00 902 - 0,9
Sa, 20.07. 14:00 904 - 1,2
Sa, 20.07. 8:00 905 - 0,7
Ortszeit Stationsdruck (hPa) Tendenz (hPa in 3 Std.)
Mo, 22.07. 4:00 906 + 0,2
Mo, 22.07. 3:50 906 keine Meldung
Mo, 22.07. 3:40 906 keine Meldung
Mo, 22.07. 3:30 906 + 0,2
Mo, 22.07. 3:20 906 keine Meldung
Mo, 22.07. 3:10 906 keine Meldung
Mo, 22.07. 3:00 906 + 0,3
Mo, 22.07. 2:30 906 + 0,5
Mo, 22.07. 2:00 906 + 1,0
Mo, 22.07. 1:30 906 + 1,1
Mo, 22.07. 1:00 906 + 1,3
Ortszeit Schneehöhe (cm)
Mo, 22.07. 2:00 0
So, 21.07. 20:00 0
So, 21.07. 14:00 0
So, 21.07. 8:00 0
So, 21.07. 2:00 0
Sa, 20.07. 20:00 0
Sa, 20.07. 14:00 0
Sa, 20.07. 8:00 0
Ortszeit Schneehöhe (cm)
Mo, 22.07. 4:00 0
Mo, 22.07. 3:50 0
Mo, 22.07. 3:40 -
Mo, 22.07. 3:30 0
Mo, 22.07. 3:20 0
Mo, 22.07. 3:10 -
Mo, 22.07. 3:00 0
Mo, 22.07. 2:30 0
Mo, 22.07. 2:00 0
Mo, 22.07. 1:30 0
Mo, 22.07. 1:00 0
Link zu dieser Seite / Seite empfehlen

Das Wetter in ...